sensor_id;sensor_type;location;lat;lon;timestamp;temperature;humidity
1175;DHT22;576;48.418;10.074;2023-12-20T00:00:14;21.50;52.80
1175;DHT22;576;48.418;10.074;2023-12-20T00:02:43;21.50;52.80
1175;DHT22;576;48.418;10.074;2023-12-20T00:05:14;21.50;52.80
1175;DHT22;576;48.418;10.074;2023-12-20T00:07:42;21.50;52.80
1175;DHT22;576;48.418;10.074;2023-12-20T00:10:11;21.50;52.60
1175;DHT22;576;48.418;10.074;2023-12-20T00:12:41;21.50;52.60
1175;DHT22;576;48.418;10.074;2023-12-20T00:15:10;21.40;52.70
1175;DHT22;576;48.418;10.074;2023-12-20T00:17:39;21.40;52.50
1175;DHT22;576;48.418;10.074;2023-12-20T00:20:08;21.40;52.70
1175;DHT22;576;48.418;10.074;2023-12-20T00:22:37;21.40;52.50
1175;DHT22;576;48.418;10.074;2023-12-20T00:25:05;21.40;52.80
1175;DHT22;576;48.418;10.074;2023-12-20T00:27:34;21.40;52.80
1175;DHT22;576;48.418;10.074;2023-12-20T00:30:04;21.40;52.80
1175;DHT22;576;48.418;10.074;2023-12-20T00:32:33;21.40;52.70
1175;DHT22;576;48.418;10.074;2023-12-20T00:35:01;21.40;52.50
1175;DHT22;576;48.418;10.074;2023-12-20T00:37:29;21.40;52.70
1175;DHT22;576;48.418;10.074;2023-12-20T00:39:58;21.30;52.70
1175;DHT22;576;48.418;10.074;2023-12-20T00:42:26;21.30;52.80
1175;DHT22;576;48.418;10.074;2023-12-20T00:44:54;21.30;52.60
1175;DHT22;576;48.418;10.074;2023-12-20T00:47:24;21.30;52.80
1175;DHT22;576;48.418;10.074;2023-12-20T00:49:52;21.30;52.80
1175;DHT22;576;48.418;10.074;2023-12-20T00:52:20;21.30;52.70
1175;DHT22;576;48.418;10.074;2023-12-20T00:54:49;21.30;52.70
1175;DHT22;576;48.418;10.074;2023-12-20T00:57:18;21.30;52.80
1175;DHT22;576;48.418;10.074;2023-12-20T00:59:46;21.30;52.80
1175;DHT22;576;48.418;10.074;2023-12-20T01:02:14;21.30;52.80
1175;DHT22;576;48.418;10.074;2023-12-20T01:04:44;21.30;52.80
1175;DHT22;576;48.418;10.074;2023-12-20T01:07:12;21.30;52.60
1175;DHT22;576;48.418;10.074;2023-12-20T01:09:40;21.20;52.80
1175;DHT22;576;48.418;10.074;2023-12-20T01:12:09;21.20;52.80
1175;DHT22;576;48.418;10.074;2023-12-20T01:14:37;21.20;52.50
1175;DHT22;576;48.418;10.074;2023-12-20T01:17:06;21.20;52.90
1175;DHT22;576;48.418;10.074;2023-12-20T01:19:34;21.20;52.90
1175;DHT22;576;48.418;10.074;2023-12-20T01:22:05;21.20;52.90
1175;DHT22;576;48.418;10.074;2023-12-20T01:24:33;21.20;52.60
1175;DHT22;576;48.418;10.074;2023-12-20T01:27:02;21.20;52.90
1175;DHT22;576;48.418;10.074;2023-12-20T01:29:30;21.20;52.80
1175;DHT22;576;48.418;10.074;2023-12-20T01:31:58;21.20;52.90
1175;DHT22;576;48.418;10.074;2023-12-20T01:34:27;21.20;52.80
1175;DHT22;576;48.418;10.074;2023-12-20T01:36:55;21.20;52.80
1175;DHT22;576;48.418;10.074;2023-12-20T01:39:25;21.20;52.80
1175;DHT22;576;48.418;10.074;2023-12-20T01:41:55;21.20;52.90
1175;DHT22;576;48.418;10.074;2023-12-20T01:44:24;21.10;52.90
1175;DHT22;576;48.418;10.074;2023-12-20T01:46:52;21.10;52.60
1175;DHT22;576;48.418;10.074;2023-12-20T01:49:21;21.10;52.60
1175;DHT22;576;48.418;10.074;2023-12-20T01:51:50;21.10;52.90
1175;DHT22;576;48.418;10.074;2023-12-20T01:54:19;21.10;52.60
1175;DHT22;576;48.418;10.074;2023-12-20T01:56:50;21.10;52.60
1175;DHT22;576;48.418;10.074;2023-12-20T01:59:20;21.10;52.80
1175;DHT22;576;48.418;10.074;2023-12-20T02:01:49;21.10;52.60
1175;DHT22;576;48.418;10.074;2023-12-20T02:04:17;21.10;52.90
1175;DHT22;576;48.418;10.074;2023-12-20T02:06:46;21.00;52.70
1175;DHT22;576;48.418;10.074;2023-12-20T02:09:15;21.00;52.80
1175;DHT22;576;48.418;10.074;2023-12-20T02:11:43;21.00;52.90
1175;DHT22;576;48.418;10.074;2023-12-20T02:14:13;21.00;52.90
1175;DHT22;576;48.418;10.074;2023-12-20T02:16:41;21.00;52.90
1175;DHT22;576;48.418;10.074;2023-12-20T02:19:14;21.00;52.80
1175;DHT22;576;48.418;10.074;2023-12-20T02:21:44;21.00;52.90
1175;DHT22;576;48.418;10.074;2023-12-20T02:24:12;21.00;52.90
1175;DHT22;576;48.418;10.074;2023-12-20T02:26:40;21.00;52.70
1175;DHT22;576;48.418;10.074;2023-12-20T02:29:13;21.00;52.80
1175;DHT22;576;48.418;10.074;2023-12-20T02:31:41;21.00;52.90
1175;DHT22;576;48.418;10.074;2023-12-20T02:34:09;21.00;52.80
1175;DHT22;576;48.418;10.074;2023-12-20T02:36:38;21.00;52.90
1175;DHT22;576;48.418;10.074;2023-12-20T02:39:08;21.00;52.90
1175;DHT22;576;48.418;10.074;2023-12-20T02:41:36;21.00;52.90
1175;DHT22;576;48.418;10.074;2023-12-20T02:44:04;21.00;52.90
1175;DHT22;576;48.418;10.074;2023-12-20T02:46:32;20.90;52.90
1175;DHT22;576;48.418;10.074;2023-12-20T02:49:01;21.00;52.90
1175;DHT22;576;48.418;10.074;2023-12-20T02:51:29;20.90;52.90
1175;DHT22;576;48.418;10.074;2023-12-20T02:53:58;20.90;52.90
1175;DHT22;576;48.418;10.074;2023-12-20T02:56:27;20.90;52.80
1175;DHT22;576;48.418;10.074;2023-12-20T02:58:55;20.90;52.90
1175;DHT22;576;48.418;10.074;2023-12-20T03:01:24;20.90;52.90
1175;DHT22;576;48.418;10.074;2023-12-20T03:03:52;20.90;52.90
1175;DHT22;576;48.418;10.074;2023-12-20T03:06:21;20.90;52.90
1175;DHT22;576;48.418;10.074;2023-12-20T03:08:49;20.90;52.90
1175;DHT22;576;48.418;10.074;2023-12-20T03:11:17;20.90;53.00
1175;DHT22;576;48.418;10.074;2023-12-20T03:13:47;20.90;52.90
1175;DHT22;576;48.418;10.074;2023-12-20T03:16:15;20.90;53.00
1175;DHT22;576;48.418;10.074;2023-12-20T03:18:44;20.90;52.90
1175;DHT22;576;48.418;10.074;2023-12-20T03:21:12;20.90;53.00
1175;DHT22;576;48.418;10.074;2023-12-20T03:23:40;20.90;53.00
1175;DHT22;576;48.418;10.074;2023-12-20T03:26:09;20.90;52.90
1175;DHT22;576;48.418;10.074;2023-12-20T03:28:37;20.80;53.00
1175;DHT22;576;48.418;10.074;2023-12-20T03:31:06;20.80;52.90
1175;DHT22;576;48.418;10.074;2023-12-20T03:33:35;20.80;53.00
1175;DHT22;576;48.418;10.074;2023-12-20T03:36:04;20.80;53.00
1175;DHT22;576;48.418;10.074;2023-12-20T03:38:32;20.80;53.00
1175;DHT22;576;48.418;10.074;2023-12-20T03:41:00;20.80;53.00
1175;DHT22;576;48.418;10.074;2023-12-20T03:43:28;20.80;53.00
1175;DHT22;576;48.418;10.074;2023-12-20T03:45:56;20.80;53.00
1175;DHT22;576;48.418;10.074;2023-12-20T03:48:27;20.80;53.00
1175;DHT22;576;48.418;10.074;2023-12-20T03:50:56;20.80;53.00
1175;DHT22;576;48.418;10.074;2023-12-20T03:53:24;20.70;53.00
1175;DHT22;576;48.418;10.074;2023-12-20T03:55:52;20.70;53.00
1175;DHT22;576;48.418;10.074;2023-12-20T03:58:21;20.70;53.20
1175;DHT22;576;48.418;10.074;2023-12-20T04:00:49;20.70;53.20
1175;DHT22;576;48.418;10.074;2023-12-20T04:03:17;20.70;53.20
1175;DHT22;576;48.418;10.074;2023-12-20T04:05:47;20.70;53.20
1175;DHT22;576;48.418;10.074;2023-12-20T04:08:15;20.60;53.20
1175;DHT22;576;48.418;10.074;2023-12-20T04:10:43;20.60;53.30
1175;DHT22;576;48.418;10.074;2023-12-20T04:13:11;20.60;53.30
1175;DHT22;576;48.418;10.074;2023-12-20T04:15:40;20.60;53.30
1175;DHT22;576;48.418;10.074;2023-12-20T04:18:08;20.60;53.30
1175;DHT22;576;48.418;10.074;2023-12-20T04:20:37;20.60;53.30
1175;DHT22;576;48.418;10.074;2023-12-20T04:23:06;20.60;53.30
1175;DHT22;576;48.418;10.074;2023-12-20T04:25:35;20.60;53.30
1175;DHT22;576;48.418;10.074;2023-12-20T04:28:03;20.60;53.30
1175;DHT22;576;48.418;10.074;2023-12-20T04:30:32;20.60;53.30
1175;DHT22;576;48.418;10.074;2023-12-20T04:33:00;20.60;53.30
1175;DHT22;576;48.418;10.074;2023-12-20T04:35:29;20.60;53.30
1175;DHT22;576;48.418;10.074;2023-12-20T04:37:57;20.60;53.20
1175;DHT22;576;48.418;10.074;2023-12-20T04:40:27;20.60;53.30
1175;DHT22;576;48.418;10.074;2023-12-20T04:42:55;20.60;53.30
1175;DHT22;576;48.418;10.074;2023-12-20T04:45:23;20.60;53.30
1175;DHT22;576;48.418;10.074;2023-12-20T04:47:51;20.60;53.30
1175;DHT22;576;48.418;10.074;2023-12-20T04:50:20;20.60;53.30
1175;DHT22;576;48.418;10.074;2023-12-20T04:52:49;20.60;53.20
1175;DHT22;576;48.418;10.074;2023-12-20T04:55:18;20.60;53.20
1175;DHT22;576;48.418;10.074;2023-12-20T04:57:47;20.60;53.20
1175;DHT22;576;48.418;10.074;2023-12-20T05:00:16;20.60;53.10
1175;DHT22;576;48.418;10.074;2023-12-20T05:02:44;20.60;53.20
1175;DHT22;576;48.418;10.074;2023-12-20T05:05:13;20.60;53.20
1175;DHT22;576;48.418;10.074;2023-12-20T05:07:42;20.60;53.20
1175;DHT22;576;48.418;10.074;2023-12-20T05:10:11;20.70;53.20
1175;DHT22;576;48.418;10.074;2023-12-20T05:12:39;20.70;53.30
1175;DHT22;576;48.418;10.074;2023-12-20T05:15:09;20.70;53.20
1175;DHT22;576;48.418;10.074;2023-12-20T05:17:37;20.80;53.20
1175;DHT22;576;48.418;10.074;2023-12-20T05:20:07;20.80;53.20
1175;DHT22;576;48.418;10.074;2023-12-20T05:22:35;20.90;53.20
1175;DHT22;576;48.418;10.074;2023-12-20T05:25:04;21.00;53.10
1175;DHT22;576;48.418;10.074;2023-12-20T05:27:38;21.00;53.00
1175;DHT22;576;48.418;10.074;2023-12-20T05:30:09;21.10;53.00
1175;DHT22;576;48.418;10.074;2023-12-20T05:32:38;21.10;52.90
1175;DHT22;576;48.418;10.074;2023-12-20T05:35:06;21.20;52.90
1175;DHT22;576;48.418;10.074;2023-12-20T05:37:34;21.30;52.80
1175;DHT22;576;48.418;10.074;2023-12-20T05:40:03;21.40;52.80
1175;DHT22;576;48.418;10.074;2023-12-20T05:42:32;21.40;52.80
1175;DHT22;576;48.418;10.074;2023-12-20T05:45:00;21.50;52.70
1175;DHT22;576;48.418;10.074;2023-12-20T05:47:30;21.60;52.70
1175;DHT22;576;48.418;10.074;2023-12-20T05:49:58;21.60;52.60
1175;DHT22;576;48.418;10.074;2023-12-20T05:52:27;21.70;52.50
1175;DHT22;576;48.418;10.074;2023-12-20T05:54:55;21.80;52.40
1175;DHT22;576;48.418;10.074;2023-12-20T05:57:24;21.90;52.40
1175;DHT22;576;48.418;10.074;2023-12-20T05:59:53;21.90;52.20
1175;DHT22;576;48.418;10.074;2023-12-20T06:02:21;22.00;52.20
1175;DHT22;576;48.418;10.074;2023-12-20T06:04:50;22.10;52.10
1175;DHT22;576;48.418;10.074;2023-12-20T06:07:19;22.10;52.00
1175;DHT22;576;48.418;10.074;2023-12-20T06:09:47;22.10;52.00
1175;DHT22;576;48.418;10.074;2023-12-20T06:12:16;22.10;52.00
1175;DHT22;576;48.418;10.074;2023-12-20T06:14:45;22.20;51.90
1175;DHT22;576;48.418;10.074;2023-12-20T06:17:13;22.10;51.90
1175;DHT22;576;48.418;10.074;2023-12-20T06:19:41;22.10;51.90
1175;DHT22;576;48.418;10.074;2023-12-20T06:22:13;22.10;51.90
1175;DHT22;576;48.418;10.074;2023-12-20T06:24:42;22.00;51.90
1175;DHT22;576;48.418;10.074;2023-12-20T06:27:10;22.00;52.00
1175;DHT22;576;48.418;10.074;2023-12-20T06:29:38;22.00;52.00
1175;DHT22;576;48.418;10.074;2023-12-20T06:32:08;21.90;52.10
1175;DHT22;576;48.418;10.074;2023-12-20T06:34:36;21.80;52.10
1175;DHT22;576;48.418;10.074;2023-12-20T06:37:07;21.80;52.20
1175;DHT22;576;48.418;10.074;2023-12-20T06:39:37;21.80;52.20
1175;DHT22;576;48.418;10.074;2023-12-20T06:42:05;21.70;52.30
1175;DHT22;576;48.418;10.074;2023-12-20T06:44:33;21.70;52.30
1175;DHT22;576;48.418;10.074;2023-12-20T06:47:02;21.70;52.40
1175;DHT22;576;48.418;10.074;2023-12-20T06:49:31;21.70;52.50
1175;DHT22;576;48.418;10.074;2023-12-20T06:51:59;21.70;52.50
1175;DHT22;576;48.418;10.074;2023-12-20T06:54:28;21.70;52.50
1175;DHT22;576;48.418;10.074;2023-12-20T06:56:57;21.70;52.50
1175;DHT22;576;48.418;10.074;2023-12-20T06:59:25;21.70;52.50
1175;DHT22;576;48.418;10.074;2023-12-20T07:01:54;21.70;52.50
1175;DHT22;576;48.418;10.074;2023-12-20T07:04:23;21.70;52.50
1175;DHT22;576;48.418;10.074;2023-12-20T07:06:52;21.80;52.50
1175;DHT22;576;48.418;10.074;2023-12-20T07:09:24;21.80;52.50
1175;DHT22;576;48.418;10.074;2023-12-20T07:11:57;21.80;52.40
1175;DHT22;576;48.418;10.074;2023-12-20T07:14:25;21.90;52.30
1175;DHT22;576;48.418;10.074;2023-12-20T07:16:54;21.90;52.40
1175;DHT22;576;48.418;10.074;2023-12-20T07:19:23;22.00;52.50
1175;DHT22;576;48.418;10.074;2023-12-20T07:21:52;22.00;52.40
1175;DHT22;576;48.418;10.074;2023-12-20T07:24:21;22.00;52.30
1175;DHT22;576;48.418;10.074;2023-12-20T07:26:49;22.00;52.30
1175;DHT22;576;48.418;10.074;2023-12-20T07:29:20;22.00;52.30
1175;DHT22;576;48.418;10.074;2023-12-20T07:31:48;22.00;52.30
1175;DHT22;576;48.418;10.074;2023-12-20T07:34:19;22.00;52.30
1175;DHT22;576;48.418;10.074;2023-12-20T07:36:47;22.00;52.20
1175;DHT22;576;48.418;10.074;2023-12-20T07:39:16;22.00;52.20
1175;DHT22;576;48.418;10.074;2023-12-20T07:41:45;22.00;52.20
1175;DHT22;576;48.418;10.074;2023-12-20T07:44:14;21.90;52.30
1175;DHT22;576;48.418;10.074;2023-12-20T07:46:48;21.90;52.40
1175;DHT22;576;48.418;10.074;2023-12-20T07:49:17;21.80;52.30
1175;DHT22;576;48.418;10.074;2023-12-20T07:51:45;21.80;52.30
1175;DHT22;576;48.418;10.074;2023-12-20T07:54:14;21.80;52.50
1175;DHT22;576;48.418;10.074;2023-12-20T07:56:51;21.70;52.50
1175;DHT22;576;48.418;10.074;2023-12-20T07:59:21;21.70;52.60
1175;DHT22;576;48.418;10.074;2023-12-20T08:02:00;21.70;52.60
1175;DHT22;576;48.418;10.074;2023-12-20T08:04:28;21.70;52.70
1175;DHT22;576;48.418;10.074;2023-12-20T08:06:57;21.70;52.70
1175;DHT22;576;48.418;10.074;2023-12-20T08:09:27;21.70;52.80
1175;DHT22;576;48.418;10.074;2023-12-20T08:11:56;21.70;52.70
1175;DHT22;576;48.418;10.074;2023-12-20T08:14:26;21.70;52.70
1175;DHT22;576;48.418;10.074;2023-12-20T08:16:54;21.70;52.70
1175;DHT22;576;48.418;10.074;2023-12-20T08:19:24;21.70;52.70
1175;DHT22;576;48.418;10.074;2023-12-20T08:21:53;21.80;52.60
1175;DHT22;576;48.418;10.074;2023-12-20T08:24:21;21.80;52.70
1175;DHT22;576;48.418;10.074;2023-12-20T08:26:49;21.80;52.70
1175;DHT22;576;48.418;10.074;2023-12-20T08:29:18;21.90;52.60
1175;DHT22;576;48.418;10.074;2023-12-20T08:31:46;22.00;52.60
1175;DHT22;576;48.418;10.074;2023-12-20T08:34:14;22.00;52.60
1175;DHT22;576;48.418;10.074;2023-12-20T08:36:47;22.00;52.50
1175;DHT22;576;48.418;10.074;2023-12-20T08:39:16;22.10;52.60
1175;DHT22;576;48.418;10.074;2023-12-20T08:41:45;22.10;52.90
1175;DHT22;576;48.418;10.074;2023-12-20T08:44:14;22.10;53.00
1175;DHT22;576;48.418;10.074;2023-12-20T08:46:42;22.10;53.00
1175;DHT22;576;48.418;10.074;2023-12-20T08:49:11;22.10;53.00
1175;DHT22;576;48.418;10.074;2023-12-20T08:51:40;22.10;53.00
1175;DHT22;576;48.418;10.074;2023-12-20T08:54:10;22.10;52.90
1175;DHT22;576;48.418;10.074;2023-12-20T08:56:40;22.00;52.90
1175;DHT22;576;48.418;10.074;2023-12-20T08:59:09;22.00;52.90
1175;DHT22;576;48.418;10.074;2023-12-20T09:01:37;22.00;52.90
1175;DHT22;576;48.418;10.074;2023-12-20T09:04:06;21.90;52.80
1175;DHT22;576;48.418;10.074;2023-12-20T09:06:35;21.90;52.90
1175;DHT22;576;48.418;10.074;2023-12-20T09:09:03;21.90;52.90
1175;DHT22;576;48.418;10.074;2023-12-20T09:11:34;21.80;52.90
1175;DHT22;576;48.418;10.074;2023-12-20T09:14:02;21.80;52.90
1175;DHT22;576;48.418;10.074;2023-12-20T09:16:31;21.80;52.90
1175;DHT22;576;48.418;10.074;2023-12-20T09:18:59;21.80;53.00
1175;DHT22;576;48.418;10.074;2023-12-20T09:21:29;21.80;53.00
1175;DHT22;576;48.418;10.074;2023-12-20T09:23:57;21.80;53.00
1175;DHT22;576;48.418;10.074;2023-12-20T09:26:26;21.80;53.00
1175;DHT22;576;48.418;10.074;2023-12-20T09:28:56;21.80;53.00
1175;DHT22;576;48.418;10.074;2023-12-20T09:31:25;21.90;53.00
1175;DHT22;576;48.418;10.074;2023-12-20T09:33:54;21.90;53.00
1175;DHT22;576;48.418;10.074;2023-12-20T09:36:23;21.90;53.00
1175;DHT22;576;48.418;10.074;2023-12-20T09:38:51;22.00;52.90
1175;DHT22;576;48.418;10.074;2023-12-20T09:41:21;22.00;52.90
1175;DHT22;576;48.418;10.074;2023-12-20T09:43:53;22.00;52.90
1175;DHT22;576;48.418;10.074;2023-12-20T09:46:27;22.00;52.80
1175;DHT22;576;48.418;10.074;2023-12-20T09:48:59;22.00;52.80
1175;DHT22;576;48.418;10.074;2023-12-20T09:51:29;22.10;52.80
1175;DHT22;576;48.418;10.074;2023-12-20T09:53:59;22.10;52.90
1175;DHT22;576;48.418;10.074;2023-12-20T09:56:29;22.10;52.70
1175;DHT22;576;48.418;10.074;2023-12-20T09:58:59;22.20;52.70
1175;DHT22;576;48.418;10.074;2023-12-20T10:01:29;22.20;52.60
1175;DHT22;576;48.418;10.074;2023-12-20T10:04:00;22.20;52.60
1175;DHT22;576;48.418;10.074;2023-12-20T10:06:34;22.30;52.50
1175;DHT22;576;48.418;10.074;2023-12-20T10:09:03;22.30;52.40
1175;DHT22;576;48.418;10.074;2023-12-20T10:11:32;22.40;52.50
1175;DHT22;576;48.418;10.074;2023-12-20T10:14:05;22.40;52.60
1175;DHT22;576;48.418;10.074;2023-12-20T10:16:35;22.50;52.50
1175;DHT22;576;48.418;10.074;2023-12-20T10:19:04;22.50;52.40
1175;DHT22;576;48.418;10.074;2023-12-20T10:21:33;22.50;52.20
1175;DHT22;576;48.418;10.074;2023-12-20T10:24:02;22.60;52.20
1175;DHT22;576;48.418;10.074;2023-12-20T10:26:31;22.70;52.30
1175;DHT22;576;48.418;10.074;2023-12-20T10:29:00;22.70;52.00
1175;DHT22;576;48.418;10.074;2023-12-20T10:31:31;22.80;51.90
1175;DHT22;576;48.418;10.074;2023-12-20T10:34:02;22.80;52.00
1175;DHT22;576;48.418;10.074;2023-12-20T10:36:32;22.80;51.70
1175;DHT22;576;48.418;10.074;2023-12-20T10:39:01;22.80;51.60
1175;DHT22;576;48.418;10.074;2023-12-20T10:41:31;22.70;51.60
1175;DHT22;576;48.418;10.074;2023-12-20T10:44:01;22.70;51.60
1175;DHT22;576;48.418;10.074;2023-12-20T10:46:30;22.60;51.70
1175;DHT22;576;48.418;10.074;2023-12-20T10:48:58;22.50;51.90
1175;DHT22;576;48.418;10.074;2023-12-20T10:51:29;22.50;52.00
1175;DHT22;576;48.418;10.074;2023-12-20T10:53:58;22.40;52.10
1175;DHT22;576;48.418;10.074;2023-12-20T10:56:32;22.40;52.10
1175;DHT22;576;48.418;10.074;2023-12-20T10:59:02;22.30;52.20
1175;DHT22;576;48.418;10.074;2023-12-20T11:01:32;22.30;52.20
1175;DHT22;576;48.418;10.074;2023-12-20T11:04:05;22.30;52.40
1175;DHT22;576;48.418;10.074;2023-12-20T11:06:43;22.20;52.40
1175;DHT22;576;48.418;10.074;2023-12-20T11:09:20;22.20;52.80
1175;DHT22;576;48.418;10.074;2023-12-20T11:11:58;22.20;52.60
1175;DHT22;576;48.418;10.074;2023-12-20T11:14:31;22.20;52.50
1175;DHT22;576;48.418;10.074;2023-12-20T11:17:08;22.20;52.50
1175;DHT22;576;48.418;10.074;2023-12-20T11:19:38;22.30;52.40
1175;DHT22;576;48.418;10.074;2023-12-20T11:22:09;22.30;52.40
1175;DHT22;576;48.418;10.074;2023-12-20T11:24:44;22.50;52.30
1175;DHT22;576;48.418;10.074;2023-12-20T11:27:14;22.60;52.20
1175;DHT22;576;48.418;10.074;2023-12-20T11:29:51;22.80;51.80
1175;DHT22;576;48.418;10.074;2023-12-20T11:32:29;22.90;51.60
1175;DHT22;576;48.418;10.074;2023-12-20T11:34:58;23.10;51.40
1175;DHT22;576;48.418;10.074;2023-12-20T11:37:35;23.20;51.60
1175;DHT22;576;48.418;10.074;2023-12-20T11:40:06;23.30;51.50
1175;DHT22;576;48.418;10.074;2023-12-20T11:42:38;23.40;51.40
1175;DHT22;576;48.418;10.074;2023-12-20T11:45:09;23.50;51.30
1175;DHT22;576;48.418;10.074;2023-12-20T11:47:38;23.60;50.90
1175;DHT22;576;48.418;10.074;2023-12-20T11:50:07;23.60;50.70
1175;DHT22;576;48.418;10.074;2023-12-20T11:52:37;23.70;50.80
1175;DHT22;576;48.418;10.074;2023-12-20T11:55:06;23.70;50.70
1175;DHT22;576;48.418;10.074;2023-12-20T11:57:36;23.70;50.60
1175;DHT22;576;48.418;10.074;2023-12-20T12:00:07;23.80;50.70
1175;DHT22;576;48.418;10.074;2023-12-20T12:02:38;23.80;50.70
1175;DHT22;576;48.418;10.074;2023-12-20T12:05:07;23.90;50.40
1175;DHT22;576;48.418;10.074;2023-12-20T12:07:37;23.90;50.30
1175;DHT22;576;48.418;10.074;2023-12-20T12:10:07;24.00;50.40
1175;DHT22;576;48.418;10.074;2023-12-20T12:12:45;23.90;50.60
1175;DHT22;576;48.418;10.074;2023-12-20T12:15:15;23.80;50.70
1175;DHT22;576;48.418;10.074;2023-12-20T12:17:44;23.60;51.00
1175;DHT22;576;48.418;10.074;2023-12-20T12:20:13;23.50;51.00
1175;DHT22;576;48.418;10.074;2023-12-20T12:22:43;23.40;51.10
1175;DHT22;576;48.418;10.074;2023-12-20T12:25:15;23.40;51.20
1175;DHT22;576;48.418;10.074;2023-12-20T12:27:44;23.40;51.40
1175;DHT22;576;48.418;10.074;2023-12-20T12:30:16;23.30;51.10
1175;DHT22;576;48.418;10.074;2023-12-20T12:32:46;23.30;51.00
1175;DHT22;576;48.418;10.074;2023-12-20T12:35:15;23.10;50.80
1175;DHT22;576;48.418;10.074;2023-12-20T12:37:45;23.10;51.00
1175;DHT22;576;48.418;10.074;2023-12-20T12:40:16;23.00;51.20
1175;DHT22;576;48.418;10.074;2023-12-20T12:42:45;23.10;51.50
1175;DHT22;576;48.418;10.074;2023-12-20T12:45:15;23.10;51.50
1175;DHT22;576;48.418;10.074;2023-12-20T12:47:44;23.20;51.30
1175;DHT22;576;48.418;10.074;2023-12-20T12:50:14;23.30;51.50
1175;DHT22;576;48.418;10.074;2023-12-20T12:52:43;23.40;51.60
1175;DHT22;576;48.418;10.074;2023-12-20T12:55:13;23.50;51.50
1175;DHT22;576;48.418;10.074;2023-12-20T12:57:42;23.60;51.10
1175;DHT22;576;48.418;10.074;2023-12-20T13:00:12;23.60;51.00
1175;DHT22;576;48.418;10.074;2023-12-20T13:02:41;23.50;50.80
1175;DHT22;576;48.418;10.074;2023-12-20T13:05:10;23.50;50.70
1175;DHT22;576;48.418;10.074;2023-12-20T13:07:39;23.50;51.20
1175;DHT22;576;48.418;10.074;2023-12-20T13:10:15;23.40;51.20
1175;DHT22;576;48.418;10.074;2023-12-20T13:12:44;23.30;51.10
1175;DHT22;576;48.418;10.074;2023-12-20T13:15:14;23.30;51.30
1175;DHT22;576;48.418;10.074;2023-12-20T13:17:43;23.30;51.50
1175;DHT22;576;48.418;10.074;2023-12-20T13:20:14;23.30;51.30
1175;DHT22;576;48.418;10.074;2023-12-20T13:22:42;23.30;51.40
1175;DHT22;576;48.418;10.074;2023-12-20T13:25:12;23.40;51.60
1175;DHT22;576;48.418;10.074;2023-12-20T13:27:42;23.40;51.60
1175;DHT22;576;48.418;10.074;2023-12-20T13:30:12;23.40;51.30
1175;DHT22;576;48.418;10.074;2023-12-20T13:32:41;23.40;51.20
1175;DHT22;576;48.418;10.074;2023-12-20T13:35:10;23.30;51.30
1175;DHT22;576;48.418;10.074;2023-12-20T13:37:39;23.20;50.80
1175;DHT22;576;48.418;10.074;2023-12-20T13:40:10;23.10;50.90
1175;DHT22;576;48.418;10.074;2023-12-20T13:42:40;23.00;51.10
1175;DHT22;576;48.418;10.074;2023-12-20T13:45:11;22.90;51.10
1175;DHT22;576;48.418;10.074;2023-12-20T13:47:40;22.80;51.30
1175;DHT22;576;48.418;10.074;2023-12-20T13:50:09;22.80;51.20
1175;DHT22;576;48.418;10.074;2023-12-20T13:52:38;22.70;51.10
1175;DHT22;576;48.418;10.074;2023-12-20T13:55:08;22.60;51.30
1175;DHT22;576;48.418;10.074;2023-12-20T13:57:37;22.60;51.20
1175;DHT22;576;48.418;10.074;2023-12-20T14:00:13;22.50;51.20
1175;DHT22;576;48.418;10.074;2023-12-20T14:02:42;22.50;51.70
1175;DHT22;576;48.418;10.074;2023-12-20T14:05:10;22.50;51.80
1175;DHT22;576;48.418;10.074;2023-12-20T14:07:41;22.50;51.70
1175;DHT22;576;48.418;10.074;2023-12-20T14:10:13;22.50;51.50
1175;DHT22;576;48.418;10.074;2023-12-20T14:12:42;22.50;51.40
1175;DHT22;576;48.418;10.074;2023-12-20T14:15:13;22.50;51.60
1175;DHT22;576;48.418;10.074;2023-12-20T14:17:42;22.50;51.30
1175;DHT22;576;48.418;10.074;2023-12-20T14:20:12;22.40;51.70
1175;DHT22;576;48.418;10.074;2023-12-20T14:22:42;22.40;51.70
1175;DHT22;576;48.418;10.074;2023-12-20T14:25:13;22.40;51.70
1175;DHT22;576;48.418;10.074;2023-12-20T14:27:42;22.30;51.70
1175;DHT22;576;48.418;10.074;2023-12-20T14:30:14;22.30;51.80
1175;DHT22;576;48.418;10.074;2023-12-20T14:32:44;22.30;51.80
1175;DHT22;576;48.418;10.074;2023-12-20T14:35:15;22.30;51.90
1175;DHT22;576;48.418;10.074;2023-12-20T14:37:44;22.20;52.00
1175;DHT22;576;48.418;10.074;2023-12-20T14:40:14;22.20;51.70
1175;DHT22;576;48.418;10.074;2023-12-20T14:42:46;22.20;51.90
1175;DHT22;576;48.418;10.074;2023-12-20T14:45:18;22.20;51.90
1175;DHT22;576;48.418;10.074;2023-12-20T14:47:48;22.20;51.80
1175;DHT22;576;48.418;10.074;2023-12-20T14:50:18;22.10;51.70
1175;DHT22;576;48.418;10.074;2023-12-20T14:52:49;22.10;52.10
1175;DHT22;576;48.418;10.074;2023-12-20T14:55:20;22.10;52.00
1175;DHT22;576;48.418;10.074;2023-12-20T14:57:50;22.10;52.00
1175;DHT22;576;48.418;10.074;2023-12-20T15:00:21;22.10;51.80
1175;DHT22;576;48.418;10.074;2023-12-20T15:02:50;22.20;51.90
1175;DHT22;576;48.418;10.074;2023-12-20T15:05:21;22.20;52.10
1175;DHT22;576;48.418;10.074;2023-12-20T15:07:51;22.20;52.00
1175;DHT22;576;48.418;10.074;2023-12-20T15:10:20;22.20;52.10
1175;DHT22;576;48.418;10.074;2023-12-20T15:12:49;22.20;52.20
1175;DHT22;576;48.418;10.074;2023-12-20T15:15:20;22.20;51.80
1175;DHT22;576;48.418;10.074;2023-12-20T15:17:50;22.20;51.80
1175;DHT22;576;48.418;10.074;2023-12-20T15:20:19;22.20;51.90
1175;DHT22;576;48.418;10.074;2023-12-20T15:22:49;22.20;51.80
1175;DHT22;576;48.418;10.074;2023-12-20T15:25:19;22.20;52.00
1175;DHT22;576;48.418;10.074;2023-12-20T15:27:49;22.20;52.10
1175;DHT22;576;48.418;10.074;2023-12-20T15:30:22;22.20;51.80
1175;DHT22;576;48.418;10.074;2023-12-20T15:32:52;22.20;52.10
1175;DHT22;576;48.418;10.074;2023-12-20T15:35:21;22.20;52.10
1175;DHT22;576;48.418;10.074;2023-12-20T15:37:50;22.20;51.70
1175;DHT22;576;48.418;10.074;2023-12-20T15:40:20;22.20;51.90
1175;DHT22;576;48.418;10.074;2023-12-20T15:42:49;22.20;52.10
1175;DHT22;576;48.418;10.074;2023-12-20T15:45:18;22.20;51.80
1175;DHT22;576;48.418;10.074;2023-12-20T15:47:49;22.20;52.00
1175;DHT22;576;48.418;10.074;2023-12-20T15:50:18;22.10;52.20
1175;DHT22;576;48.418;10.074;2023-12-20T15:52:47;22.10;52.30
1175;DHT22;576;48.418;10.074;2023-12-20T15:55:16;22.10;52.40
1175;DHT22;576;48.418;10.074;2023-12-20T15:57:45;22.10;52.50
1175;DHT22;576;48.418;10.074;2023-12-20T16:00:21;22.10;52.40
1175;DHT22;576;48.418;10.074;2023-12-20T16:02:52;22.10;52.50
1175;DHT22;576;48.418;10.074;2023-12-20T16:05:21;22.10;52.50
1175;DHT22;576;48.418;10.074;2023-12-20T16:07:50;22.10;52.50
1175;DHT22;576;48.418;10.074;2023-12-20T16:10:19;22.00;52.60
1175;DHT22;576;48.418;10.074;2023-12-20T16:12:48;22.00;52.40
1175;DHT22;576;48.418;10.074;2023-12-20T16:15:17;22.00;52.70